Terminal Aerodrome Forecast
Issued by NWS

Home | Current Version | Previous Version | Text Only | Print | Product List | Glossary Off
Versions: 1 2 3 4 5 6 7 8 9 10 11 12 13 14 15 16 17

000
FTUS43 KGRB 290300 AAA
TAFAUW
TAF AMD
KAUW 290316Z 2903/2924 30005KT P6SM -SHRA SCT040 BKN080
     FM290600 30003KT P6SM BKN080
     FM291600 29007KT P6SM VCSH SCT040 BKN060=

USA.gov is the U.S. government's official web portal to all federal, state and local government web resources and services.